sensor_id;sensor_type;location;lat;lon;timestamp;pressure;altitude;pressure_sealevel;temperature;humidity
5753;BME280;2901;42.140;24.760;2023-07-29T00:00:41;99168.13;;;22.11;44.95
5753;BME280;2901;42.140;24.760;2023-07-29T00:03:06;99166.09;;;22.01;45.27
5753;BME280;2901;42.140;24.760;2023-07-29T00:05:32;99173.34;;;21.97;45.44
5753;BME280;2901;42.140;24.760;2023-07-29T00:07:57;99170.34;;;21.88;45.71
5753;BME280;2901;42.140;24.760;2023-07-29T00:10:22;99170.47;;;21.86;45.48
5753;BME280;2901;42.140;24.760;2023-07-29T00:12:48;99164.16;;;21.89;45.78
5753;BME280;2901;42.140;24.760;2023-07-29T00:15:13;99158.81;;;21.90;46.29
5753;BME280;2901;42.140;24.760;2023-07-29T00:17:39;99152.75;;;21.88;46.74
5753;BME280;2901;42.140;24.760;2023-07-29T00:20:06;99161.53;;;21.89;46.81
5753;BME280;2901;42.140;24.760;2023-07-29T00:22:32;99155.06;;;21.94;46.59
5753;BME280;2901;42.140;24.760;2023-07-29T00:24:57;99165.44;;;21.97;46.89
5753;BME280;2901;42.140;24.760;2023-07-29T00:27:24;99169.66;;;22.00;46.98
5753;BME280;2901;42.140;24.760;2023-07-29T00:29:50;99173.84;;;22.04;46.85
5753;BME280;2901;42.140;24.760;2023-07-29T00:32:15;99168.56;;;22.04;46.77
5753;BME280;2901;42.140;24.760;2023-07-29T00:34:41;99168.38;;;22.07;46.71
5753;BME280;2901;42.140;24.760;2023-07-29T00:37:06;99173.84;;;22.04;47.40
5753;BME280;2901;42.140;24.760;2023-07-29T00:39:32;99174.88;;;22.01;47.58
5753;BME280;2901;42.140;24.760;2023-07-29T00:41:58;99171.56;;;21.98;47.99
5753;BME280;2901;42.140;24.760;2023-07-29T00:44:23;99179.91;;;21.90;48.62
5753;BME280;2901;42.140;24.760;2023-07-29T00:46:51;99172.31;;;21.84;49.50
5753;BME280;2901;42.140;24.760;2023-07-29T00:49:17;99176.00;;;21.82;49.94
5753;BME280;2901;42.140;24.760;2023-07-29T00:51:43;99178.06;;;21.77;50.42
5753;BME280;2901;42.140;24.760;2023-07-29T00:54:08;99171.06;;;21.76;51.29
5753;BME280;2901;42.140;24.760;2023-07-29T00:56:34;99169.53;;;21.71;51.71
5753;BME280;2901;42.140;24.760;2023-07-29T00:59:01;99174.63;;;21.74;51.95
5753;BME280;2901;42.140;24.760;2023-07-29T01:01:27;99164.44;;;21.68;52.20
5753;BME280;2901;42.140;24.760;2023-07-29T01:03:53;99156.72;;;21.65;52.46
5753;BME280;2901;42.140;24.760;2023-07-29T01:06:50;99154.44;;;21.59;52.92
5753;BME280;2901;42.140;24.760;2023-07-29T01:12:11;99157.06;;;21.59;53.00
5753;BME280;2901;42.140;24.760;2023-07-29T01:14:46;99167.78;;;21.56;54.16
5753;BME280;2901;42.140;24.760;2023-07-29T01:17:22;99157.25;;;21.56;54.36
5753;BME280;2901;42.140;24.760;2023-07-29T01:22:35;99159.28;;;21.51;54.63
5753;BME280;2901;42.140;24.760;2023-07-29T01:25:01;99162.09;;;21.48;54.44
5753;BME280;2901;42.140;24.760;2023-07-29T01:27:26;99163.97;;;21.46;54.51
5753;BME280;2901;42.140;24.760;2023-07-29T01:29:56;99162.25;;;21.45;54.68
5753;BME280;2901;42.140;24.760;2023-07-29T01:32:34;99164.22;;;21.42;53.84
5753;BME280;2901;42.140;24.760;2023-07-29T01:35:13;99167.88;;;21.39;54.16
5753;BME280;2901;42.140;24.760;2023-07-29T01:37:41;99164.47;;;21.37;54.38
5753;BME280;2901;42.140;24.760;2023-07-29T01:40:08;99169.06;;;21.34;54.88
5753;BME280;2901;42.140;24.760;2023-07-29T01:42:34;99166.50;;;21.32;55.38
5753;BME280;2901;42.140;24.760;2023-07-29T01:45:00;99169.72;;;21.37;55.21
5753;BME280;2901;42.140;24.760;2023-07-29T01:47:25;99160.72;;;21.41;54.80
5753;BME280;2901;42.140;24.760;2023-07-29T01:49:51;99165.25;;;21.39;54.88
5753;BME280;2901;42.140;24.760;2023-07-29T01:52:16;99167.09;;;21.37;55.40
5753;BME280;2901;42.140;24.760;2023-07-29T01:54:42;99175.28;;;21.33;55.44
5753;BME280;2901;42.140;24.760;2023-07-29T01:57:07;99179.84;;;21.29;55.77
5753;BME280;2901;42.140;24.760;2023-07-29T01:59:32;99181.88;;;21.24;56.77
5753;BME280;2901;42.140;24.760;2023-07-29T02:01:58;99174.25;;;21.19;56.73
5753;BME280;2901;42.140;24.760;2023-07-29T02:04:23;99178.22;;;21.11;57.95
5753;BME280;2901;42.140;24.760;2023-07-29T02:06:48;99183.94;;;21.02;58.29
5753;BME280;2901;42.140;24.760;2023-07-29T02:09:14;99184.97;;;20.99;58.25
5753;BME280;2901;42.140;24.760;2023-07-29T02:11:39;99185.81;;;21.00;58.53
5753;BME280;2901;42.140;24.760;2023-07-29T02:14:05;99189.38;;;20.99;58.45
5753;BME280;2901;42.140;24.760;2023-07-29T02:16:30;99197.53;;;20.94;59.42
5753;BME280;2901;42.140;24.760;2023-07-29T02:18:57;99192.88;;;20.66;60.45
5753;BME280;2901;42.140;24.760;2023-07-29T02:21:23;99203.19;;;20.54;61.43
5753;BME280;2901;42.140;24.760;2023-07-29T02:23:48;99199.88;;;20.50;61.65
5753;BME280;2901;42.140;24.760;2023-07-29T02:26:13;99198.16;;;20.49;62.11
5753;BME280;2901;42.140;24.760;2023-07-29T02:28:39;99194.75;;;20.47;61.73
5753;BME280;2901;42.140;24.760;2023-07-29T02:31:21;99193.00;;;20.48;62.13
5753;BME280;2901;42.140;24.760;2023-07-29T02:33:47;99192.28;;;20.44;62.33
5753;BME280;2901;42.140;24.760;2023-07-29T02:36:13;99188.13;;;20.40;62.39
5753;BME280;2901;42.140;24.760;2023-07-29T02:38:39;99188.44;;;20.34;63.06
5753;BME280;2901;42.140;24.760;2023-07-29T02:41:05;99192.31;;;20.27;63.35
5753;BME280;2901;42.140;24.760;2023-07-29T02:43:30;99200.38;;;20.23;63.40
5753;BME280;2901;42.140;24.760;2023-07-29T02:45:55;99200.94;;;20.29;63.21
5753;BME280;2901;42.140;24.760;2023-07-29T02:48:21;99197.59;;;20.26;63.75
5753;BME280;2901;42.140;24.760;2023-07-29T02:50:46;99201.03;;;20.28;63.83
5753;BME280;2901;42.140;24.760;2023-07-29T02:53:11;99194.00;;;20.28;63.72
5753;BME280;2901;42.140;24.760;2023-07-29T02:55:40;99196.63;;;20.28;63.86
5753;BME280;2901;42.140;24.760;2023-07-29T02:58:06;99193.06;;;20.29;63.39
5753;BME280;2901;42.140;24.760;2023-07-29T03:00:32;99194.78;;;20.30;63.50
5753;BME280;2901;42.140;24.760;2023-07-29T03:02:58;99198.41;;;20.28;63.44
5753;BME280;2901;42.140;24.760;2023-07-29T03:05:23;99199.53;;;20.22;63.75
5753;BME280;2901;42.140;24.760;2023-07-29T03:07:49;99205.56;;;20.24;64.43
5753;BME280;2901;42.140;24.760;2023-07-29T03:10:14;99205.34;;;20.29;64.28
5753;BME280;2901;42.140;24.760;2023-07-29T03:12:40;99207.91;;;20.30;64.29
5753;BME280;2901;42.140;24.760;2023-07-29T03:15:06;99202.66;;;20.30;63.83
5753;BME280;2901;42.140;24.760;2023-07-29T03:17:31;99205.28;;;20.30;63.87
5753;BME280;2901;42.140;24.760;2023-07-29T03:19:57;99210.13;;;20.20;64.49
5753;BME280;2901;42.140;24.760;2023-07-29T03:22:22;99204.47;;;20.11;64.11
5753;BME280;2901;42.140;24.760;2023-07-29T03:24:47;99209.91;;;20.08;64.24
5753;BME280;2901;42.140;24.760;2023-07-29T03:27:13;99217.16;;;20.03;65.15
5753;BME280;2901;42.140;24.760;2023-07-29T03:29:40;99216.44;;;19.99;65.97
5753;BME280;2901;42.140;24.760;2023-07-29T03:32:05;99213.25;;;19.93;66.24
5753;BME280;2901;42.140;24.760;2023-07-29T03:34:31;99207.34;;;19.71;66.99
5753;BME280;2901;42.140;24.760;2023-07-29T03:36:57;99205.22;;;19.60;67.70
5753;BME280;2901;42.140;24.760;2023-07-29T03:39:22;99226.19;;;19.61;68.89
5753;BME280;2901;42.140;24.760;2023-07-29T03:41:48;99227.47;;;19.72;68.90
5753;BME280;2901;42.140;24.760;2023-07-29T03:44:13;99229.03;;;19.76;69.06
5753;BME280;2901;42.140;24.760;2023-07-29T03:46:39;99227.16;;;19.78;68.50
5753;BME280;2901;42.140;24.760;2023-07-29T03:49:04;99234.84;;;19.82;68.46
5753;BME280;2901;42.140;24.760;2023-07-29T03:51:30;99232.97;;;19.84;68.56
5753;BME280;2901;42.140;24.760;2023-07-29T03:53:55;99236.59;;;19.82;67.24
5753;BME280;2901;42.140;24.760;2023-07-29T03:56:20;99238.38;;;19.81;67.53
5753;BME280;2901;42.140;24.760;2023-07-29T03:58:46;99230.41;;;19.83;67.84
5753;BME280;2901;42.140;24.760;2023-07-29T04:01:13;99241.31;;;19.92;67.46
5753;BME280;2901;42.140;24.760;2023-07-29T04:03:38;99254.03;;;20.01;67.36
5753;BME280;2901;42.140;24.760;2023-07-29T04:06:04;99246.91;;;20.03;67.04
5753;BME280;2901;42.140;24.760;2023-07-29T04:08:29;99251.16;;;20.06;67.20
5753;BME280;2901;42.140;24.760;2023-07-29T04:10:55;99250.41;;;20.04;67.34
5753;BME280;2901;42.140;24.760;2023-07-29T04:13:20;99250.88;;;20.12;67.92
5753;BME280;2901;42.140;24.760;2023-07-29T04:15:46;99258.06;;;20.08;66.99
5753;BME280;2901;42.140;24.760;2023-07-29T04:18:11;99250.19;;;20.08;67.04
5753;BME280;2901;42.140;24.760;2023-07-29T04:20:36;99254.19;;;20.15;67.73
5753;BME280;2901;42.140;24.760;2023-07-29T04:23:02;99257.63;;;20.17;67.61
5753;BME280;2901;42.140;24.760;2023-07-29T04:25:27;99246.84;;;20.22;67.55
5753;BME280;2901;42.140;24.760;2023-07-29T04:27:53;99247.97;;;20.35;67.19
5753;BME280;2901;42.140;24.760;2023-07-29T04:30:19;99245.97;;;20.40;67.33
5753;BME280;2901;42.140;24.760;2023-07-29T04:32:45;99253.56;;;20.46;67.07
5753;BME280;2901;42.140;24.760;2023-07-29T04:35:13;99259.19;;;20.56;66.93
5753;BME280;2901;42.140;24.760;2023-07-29T04:37:39;99256.56;;;20.56;66.16
5753;BME280;2901;42.140;24.760;2023-07-29T04:40:06;99258.81;;;20.63;66.65
5753;BME280;2901;42.140;24.760;2023-07-29T04:42:31;99262.69;;;20.74;65.78
5753;BME280;2901;42.140;24.760;2023-07-29T04:44:57;99266.72;;;20.81;64.65
5753;BME280;2901;42.140;24.760;2023-07-29T04:47:22;99267.78;;;20.94;64.63
5753;BME280;2901;42.140;24.760;2023-07-29T04:49:48;99261.84;;;21.06;64.25
5753;BME280;2901;42.140;24.760;2023-07-29T04:52:13;99239.25;;;21.02;64.31
5753;BME280;2901;42.140;24.760;2023-07-29T04:54:40;99255.63;;;21.24;63.74
5753;BME280;2901;42.140;24.760;2023-07-29T04:57:05;99252.34;;;21.36;64.01
5753;BME280;2901;42.140;24.760;2023-07-29T04:59:31;99259.41;;;21.51;63.06
5753;BME280;2901;42.140;24.760;2023-07-29T05:01:56;99263.56;;;21.71;62.78
5753;BME280;2901;42.140;24.760;2023-07-29T05:04:22;99258.75;;;21.79;61.59
5753;BME280;2901;42.140;24.760;2023-07-29T05:06:48;99265.38;;;21.86;61.70
5753;BME280;2901;42.140;24.760;2023-07-29T05:09:17;99263.84;;;21.98;61.03
5753;BME280;2901;42.140;24.760;2023-07-29T05:11:44;99264.59;;;22.00;61.03
5753;BME280;2901;42.140;24.760;2023-07-29T05:14:11;99271.59;;;22.01;60.82
5753;BME280;2901;42.140;24.760;2023-07-29T05:16:36;99263.09;;;21.96;59.96
5753;BME280;2901;42.140;24.760;2023-07-29T05:19:02;99266.19;;;21.87;60.99
5753;BME280;2901;42.140;24.760;2023-07-29T05:21:27;99269.19;;;21.81;60.58
5753;BME280;2901;42.140;24.760;2023-07-29T05:23:52;99269.00;;;21.84;61.01
5753;BME280;2901;42.140;24.760;2023-07-29T05:26:18;99268.72;;;21.90;60.32
5753;BME280;2901;42.140;24.760;2023-07-29T05:28:43;99275.31;;;21.97;60.20
5753;BME280;2901;42.140;24.760;2023-07-29T05:31:09;99273.97;;;22.05;59.96
5753;BME280;2901;42.140;24.760;2023-07-29T05:33:34;99272.22;;;22.20;58.85
5753;BME280;2901;42.140;24.760;2023-07-29T05:36:01;99271.22;;;22.22;56.83
5753;BME280;2901;42.140;24.760;2023-07-29T05:38:26;99281.25;;;22.32;56.57
5753;BME280;2901;42.140;24.760;2023-07-29T05:40:52;99285.66;;;22.31;56.63
5753;BME280;2901;42.140;24.760;2023-07-29T05:43:17;99280.03;;;22.37;56.47
5753;BME280;2901;42.140;24.760;2023-07-29T05:45:43;99287.19;;;22.35;56.09
5753;BME280;2901;42.140;24.760;2023-07-29T05:48:08;99291.63;;;22.35;56.25
5753;BME280;2901;42.140;24.760;2023-07-29T05:50:33;99292.66;;;22.32;56.78
5753;BME280;2901;42.140;24.760;2023-07-29T05:52:59;99289.84;;;22.35;57.56
5753;BME280;2901;42.140;24.760;2023-07-29T05:55:24;99288.63;;;22.41;56.91
5753;BME280;2901;42.140;24.760;2023-07-29T05:57:49;99274.81;;;22.51;57.25
5753;BME280;2901;42.140;24.760;2023-07-29T06:00:15;99277.66;;;22.62;56.55
5753;BME280;2901;42.140;24.760;2023-07-29T06:02:40;99278.94;;;22.71;53.66
5753;BME280;2901;42.140;24.760;2023-07-29T06:05:08;99273.38;;;22.75;54.14
5753;BME280;2901;42.140;24.760;2023-07-29T06:07:34;99277.34;;;22.83;54.35
5753;BME280;2901;42.140;24.760;2023-07-29T06:10:00;99278.13;;;22.99;53.96
5753;BME280;2901;42.140;24.760;2023-07-29T06:12:25;99272.75;;;23.00;54.14
5753;BME280;2901;42.140;24.760;2023-07-29T06:14:51;99264.00;;;23.14;53.25
5753;BME280;2901;42.140;24.760;2023-07-29T06:17:17;99266.34;;;23.04;53.17
5753;BME280;2901;42.140;24.760;2023-07-29T06:19:42;99273.78;;;23.12;51.99
5753;BME280;2901;42.140;24.760;2023-07-29T06:22:09;99272.00;;;23.12;53.18
5753;BME280;2901;42.140;24.760;2023-07-29T06:24:35;99283.03;;;23.19;52.74
5753;BME280;2901;42.140;24.760;2023-07-29T06:27:00;99285.16;;;23.28;51.22
5753;BME280;2901;42.140;24.760;2023-07-29T06:29:25;99283.72;;;23.37;51.62
5753;BME280;2901;42.140;24.760;2023-07-29T06:31:51;99281.94;;;23.51;51.01
5753;BME280;2901;42.140;24.760;2023-07-29T06:34:17;99284.09;;;23.59;50.11
5753;BME280;2901;42.140;24.760;2023-07-29T06:36:43;99278.69;;;23.74;48.76
5753;BME280;2901;42.140;24.760;2023-07-29T06:39:08;99273.97;;;23.80;48.59
5753;BME280;2901;42.140;24.760;2023-07-29T06:41:33;99273.28;;;23.90;47.98
5753;BME280;2901;42.140;24.760;2023-07-29T06:43:59;99265.88;;;23.95;48.22
5753;BME280;2901;42.140;24.760;2023-07-29T06:46:24;99262.94;;;24.00;47.65
5753;BME280;2901;42.140;24.760;2023-07-29T06:48:50;99251.97;;;24.06;47.72
5753;BME280;2901;42.140;24.760;2023-07-29T06:51:15;99276.84;;;24.30;47.35
5753;BME280;2901;42.140;24.760;2023-07-29T06:53:40;99269.59;;;24.46;46.95
5753;BME280;2901;42.140;24.760;2023-07-29T06:56:06;99270.03;;;24.65;46.60
5753;BME280;2901;42.140;24.760;2023-07-29T06:58:31;99265.06;;;24.73;45.98
5753;BME280;2901;42.140;24.760;2023-07-29T07:00:57;99264.66;;;24.79;45.77
5753;BME280;2901;42.140;24.760;2023-07-29T07:03:22;99267.44;;;24.91;45.33
5753;BME280;2901;42.140;24.760;2023-07-29T07:05:48;99266.28;;;24.95;45.82
5753;BME280;2901;42.140;24.760;2023-07-29T07:08:13;99262.78;;;25.07;45.60
5753;BME280;2901;42.140;24.760;2023-07-29T07:10:38;99261.50;;;25.25;45.78
5753;BME280;2901;42.140;24.760;2023-07-29T07:13:04;99253.41;;;25.39;45.22
5753;BME280;2901;42.140;24.760;2023-07-29T07:15:29;99259.69;;;25.51;45.90
5753;BME280;2901;42.140;24.760;2023-07-29T07:17:54;99252.34;;;25.67;44.82
5753;BME280;2901;42.140;24.760;2023-07-29T07:20:21;99251.56;;;25.77;44.45
5753;BME280;2901;42.140;24.760;2023-07-29T07:22:46;99248.00;;;25.90;44.49
5753;BME280;2901;42.140;24.760;2023-07-29T07:25:12;99245.56;;;25.87;43.95
5753;BME280;2901;42.140;24.760;2023-07-29T07:27:37;99246.53;;;25.86;44.31
5753;BME280;2901;42.140;24.760;2023-07-29T07:30:03;99244.03;;;25.95;44.39
5753;BME280;2901;42.140;24.760;2023-07-29T07:32:28;99239.09;;;25.91;44.29
5753;BME280;2901;42.140;24.760;2023-07-29T07:34:54;99236.38;;;26.03;43.61
5753;BME280;2901;42.140;24.760;2023-07-29T07:37:19;99235.41;;;26.28;43.73
5753;BME280;2901;42.140;24.760;2023-07-29T07:39:44;99222.72;;;26.44;43.16
5753;BME280;2901;42.140;24.760;2023-07-29T07:42:10;99224.66;;;26.53;43.10
5753;BME280;2901;42.140;24.760;2023-07-29T07:44:35;99224.66;;;26.64;42.87
5753;BME280;2901;42.140;24.760;2023-07-29T07:47:00;99211.41;;;26.75;42.39
5753;BME280;2901;42.140;24.760;2023-07-29T07:49:26;99217.25;;;26.92;42.53
5753;BME280;2901;42.140;24.760;2023-07-29T07:51:51;99209.53;;;27.11;42.05
5753;BME280;2901;42.140;24.760;2023-07-29T07:54:16;99210.50;;;27.32;41.48
5753;BME280;2901;42.140;24.760;2023-07-29T07:56:43;99215.06;;;27.41;41.47
5753;BME280;2901;42.140;24.760;2023-07-29T07:59:08;99212.69;;;27.49;40.96
5753;BME280;2901;42.140;24.760;2023-07-29T08:01:43;99204.78;;;27.70;40.79
5753;BME280;2901;42.140;24.760;2023-07-29T08:04:08;99204.97;;;27.89;40.12
5753;BME280;2901;42.140;24.760;2023-07-29T08:06:33;99192.97;;;27.95;39.66
5753;BME280;2901;42.140;24.760;2023-07-29T08:08:59;99192.97;;;27.95;39.07
5753;BME280;2901;42.140;24.760;2023-07-29T08:11:25;99196.16;;;27.89;39.53
5753;BME280;2901;42.140;24.760;2023-07-29T08:13:50;99192.72;;;27.98;39.52
5753;BME280;2901;42.140;24.760;2023-07-29T08:16:16;99180.22;;;28.09;39.03
5753;BME280;2901;42.140;24.760;2023-07-29T08:18:41;99188.44;;;28.17;40.05
5753;BME280;2901;42.140;24.760;2023-07-29T08:21:07;99178.03;;;28.14;38.87
5753;BME280;2901;42.140;24.760;2023-07-29T08:23:33;99182.31;;;28.26;38.50
5753;BME280;2901;42.140;24.760;2023-07-29T08:26:02;99178.44;;;28.30;38.61
5753;BME280;2901;42.140;24.760;2023-07-29T08:28:29;99183.88;;;28.50;38.25
5753;BME280;2901;42.140;24.760;2023-07-29T08:30:55;99179.16;;;28.74;38.05
5753;BME280;2901;42.140;24.760;2023-07-29T08:33:21;99169.22;;;28.76;37.96
5753;BME280;2901;42.140;24.760;2023-07-29T08:35:46;99170.63;;;28.80;37.86
5753;BME280;2901;42.140;24.760;2023-07-29T08:38:11;99167.34;;;28.97;37.20
5753;BME280;2901;42.140;24.760;2023-07-29T08:40:42;99166.00;;;29.12;36.85
5753;BME280;2901;42.140;24.760;2023-07-29T08:43:08;99168.41;;;29.15;36.39
5753;BME280;2901;42.140;24.760;2023-07-29T08:45:35;99152.91;;;29.00;36.49
5753;BME280;2901;42.140;24.760;2023-07-29T08:48:03;99157.66;;;29.26;35.85
5753;BME280;2901;42.140;24.760;2023-07-29T08:50:31;99159.25;;;29.48;35.06
5753;BME280;2901;42.140;24.760;2023-07-29T08:52:58;99157.34;;;29.69;34.46
5753;BME280;2901;42.140;24.760;2023-07-29T08:55:24;99146.97;;;29.85;34.77
5753;BME280;2901;42.140;24.760;2023-07-29T08:57:50;99151.19;;;29.88;33.78
5753;BME280;2901;42.140;24.760;2023-07-29T09:00:16;99138.66;;;29.79;33.58
5753;BME280;2901;42.140;24.760;2023-07-29T09:02:42;99153.13;;;29.76;33.42
5753;BME280;2901;42.140;24.760;2023-07-29T09:05:07;99146.13;;;29.85;34.01
5753;BME280;2901;42.140;24.760;2023-07-29T09:07:34;99146.84;;;30.06;33.72
5753;BME280;2901;42.140;24.760;2023-07-29T09:10:01;99141.88;;;30.30;33.53
5753;BME280;2901;42.140;24.760;2023-07-29T09:12:27;99135.84;;;30.28;33.13
5753;BME280;2901;42.140;24.760;2023-07-29T09:14:52;99138.09;;;30.33;32.20
5753;BME280;2901;42.140;24.760;2023-07-29T09:17:19;99132.03;;;30.31;32.66
5753;BME280;2901;42.140;24.760;2023-07-29T09:19:50;99127.81;;;30.38;32.63
5753;BME280;2901;42.140;24.760;2023-07-29T09:22:20;99122.34;;;30.49;32.48
5753;BME280;2901;42.140;24.760;2023-07-29T09:24:46;99124.66;;;30.71;31.92
5753;BME280;2901;42.140;24.760;2023-07-29T09:27:28;99121.25;;;30.79;32.11
5753;BME280;2901;42.140;24.760;2023-07-29T09:29:55;99118.84;;;30.85;31.76
5753;BME280;2901;42.140;24.760;2023-07-29T09:32:22;99119.38;;;30.99;30.49
5753;BME280;2901;42.140;24.760;2023-07-29T09:34:48;99110.03;;;31.03;30.54
5753;BME280;2901;42.140;24.760;2023-07-29T09:37:20;99103.88;;;31.20;30.14
5753;BME280;2901;42.140;24.760;2023-07-29T09:39:46;99103.31;;;31.44;29.55
5753;BME280;2901;42.140;24.760;2023-07-29T09:42:18;99101.31;;;31.46;28.99
5753;BME280;2901;42.140;24.760;2023-07-29T09:44:44;99092.66;;;31.61;29.05
5753;BME280;2901;42.140;24.760;2023-07-29T09:47:09;99093.94;;;31.75;28.39
5753;BME280;2901;42.140;24.760;2023-07-29T09:49:35;99092.56;;;31.88;27.83
5753;BME280;2901;42.140;24.760;2023-07-29T09:52:01;99091.09;;;32.12;27.14
5753;BME280;2901;42.140;24.760;2023-07-29T09:54:30;99091.53;;;32.25;27.55
5753;BME280;2901;42.140;24.760;2023-07-29T09:56:56;99085.50;;;32.23;27.31
5753;BME280;2901;42.140;24.760;2023-07-29T09:59:23;99084.00;;;32.28;26.53
5753;BME280;2901;42.140;24.760;2023-07-29T10:01:49;99087.84;;;32.26;27.12
5753;BME280;2901;42.140;24.760;2023-07-29T10:04:15;99082.03;;;32.30;26.44
5753;BME280;2901;42.140;24.760;2023-07-29T10:06:42;99079.38;;;32.13;27.34
5753;BME280;2901;42.140;24.760;2023-07-29T10:09:11;99072.50;;;32.10;26.98
5753;BME280;2901;42.140;24.760;2023-07-29T10:11:37;99081.34;;;32.28;26.80
5753;BME280;2901;42.140;24.760;2023-07-29T10:14:03;99075.97;;;32.28;26.83
5753;BME280;2901;42.140;24.760;2023-07-29T10:16:28;99080.69;;;32.34;27.06
5753;BME280;2901;42.140;24.760;2023-07-29T10:18:55;99073.81;;;32.32;27.33
5753;BME280;2901;42.140;24.760;2023-07-29T10:21:22;99074.00;;;32.30;26.50
5753;BME280;2901;42.140;24.760;2023-07-29T10:23:49;99069.72;;;32.20;27.00
5753;BME280;2901;42.140;24.760;2023-07-29T10:26:19;99068.22;;;32.17;27.15
5753;BME280;2901;42.140;24.760;2023-07-29T10:28:47;99069.34;;;32.15;26.76
5753;BME280;2901;42.140;24.760;2023-07-29T10:31:14;99067.63;;;32.31;26.53
5753;BME280;2901;42.140;24.760;2023-07-29T10:33:41;99071.94;;;32.50;27.23
5753;BME280;2901;42.140;24.760;2023-07-29T10:36:06;99068.16;;;32.61;25.94
5753;BME280;2901;42.140;24.760;2023-07-29T10:38:33;99054.34;;;32.81;26.33
5753;BME280;2901;42.140;24.760;2023-07-29T10:40:58;99055.78;;;33.10;25.75
5753;BME280;2901;42.140;24.760;2023-07-29T10:43:36;99056.69;;;33.34;25.68
5753;BME280;2901;42.140;24.760;2023-07-29T10:46:21;99043.84;;;33.62;25.04
5753;BME280;2901;42.140;24.760;2023-07-29T10:51:30;99045.53;;;33.87;24.78
5753;BME280;2901;42.140;24.760;2023-07-29T10:54:10;99040.66;;;33.83;24.39
5753;BME280;2901;42.140;24.760;2023-07-29T10:56:40;99032.41;;;34.01;24.56
5753;BME280;2901;42.140;24.760;2023-07-29T11:01:40;99030.53;;;34.33;23.73
5753;BME280;2901;42.140;24.760;2023-07-29T11:12:42;99017.94;;;34.34;23.21
5753;BME280;2901;42.140;24.760;2023-07-29T11:17:39;99015.94;;;34.28;23.66
5753;BME280;2901;42.140;24.760;2023-07-29T11:20:05;99011.38;;;34.28;23.50
5753;BME280;2901;42.140;24.760;2023-07-29T11:22:32;99009.53;;;34.29;23.81
5753;BME280;2901;42.140;24.760;2023-07-29T11:24:58;98995.38;;;34.43;23.53
5753;BME280;2901;42.140;24.760;2023-07-29T11:27:23;98996.16;;;34.60;23.37
5753;BME280;2901;42.140;24.760;2023-07-29T11:29:49;99000.38;;;34.62;23.35
5753;BME280;2901;42.140;24.760;2023-07-29T11:32:15;98997.44;;;34.80;23.22
5753;BME280;2901;42.140;24.760;2023-07-29T11:34:41;98999.72;;;34.91;23.15
5753;BME280;2901;42.140;24.760;2023-07-29T11:37:08;98992.06;;;35.11;23.10
5753;BME280;2901;42.140;24.760;2023-07-29T11:39:39;98991.16;;;35.41;23.06
5753;BME280;2901;42.140;24.760;2023-07-29T11:42:05;98992.91;;;35.57;22.63
5753;BME280;2901;42.140;24.760;2023-07-29T11:44:30;98988.13;;;35.67;22.52
5753;BME280;2901;42.140;24.760;2023-07-29T11:46:56;98980.72;;;35.83;22.55
5753;BME280;2901;42.140;24.760;2023-07-29T11:49:21;98981.38;;;35.85;22.34
5753;BME280;2901;42.140;24.760;2023-07-29T11:51:46;98979.16;;;35.29;22.25
5753;BME280;2901;42.140;24.760;2023-07-29T11:54:12;98974.38;;;35.08;22.78
5753;BME280;2901;42.140;24.760;2023-07-29T11:56:37;98971.72;;;34.77;23.28
5753;BME280;2901;42.140;24.760;2023-07-29T11:59:03;98975.09;;;34.71;23.75
5753;BME280;2901;42.140;24.760;2023-07-29T12:01:28;98978.53;;;34.88;24.18
5753;BME280;2901;42.140;24.760;2023-07-29T12:03:55;98965.56;;;35.22;23.85
5753;BME280;2901;42.140;24.760;2023-07-29T12:06:22;98960.06;;;35.38;23.33
5753;BME280;2901;42.140;24.760;2023-07-29T12:08:49;98955.09;;;35.50;22.69
5753;BME280;2901;42.140;24.760;2023-07-29T12:11:15;98955.97;;;35.65;22.77
5753;BME280;2901;42.140;24.760;2023-07-29T12:13:41;98957.03;;;35.79;22.65
5753;BME280;2901;42.140;24.760;2023-07-29T12:16:07;98962.63;;;35.92;22.13
5753;BME280;2901;42.140;24.760;2023-07-29T12:18:33;98966.69;;;35.88;21.78
5753;BME280;2901;42.140;24.760;2023-07-29T12:20:59;98953.50;;;35.93;21.95
5753;BME280;2901;42.140;24.760;2023-07-29T12:23:25;98959.56;;;36.10;22.24
5753;BME280;2901;42.140;24.760;2023-07-29T12:25:56;98950.56;;;36.17;21.50
5753;BME280;2901;42.140;24.760;2023-07-29T12:28:22;98943.78;;;36.07;22.10
5753;BME280;2901;42.140;24.760;2023-07-29T12:30:47;98937.53;;;36.06;21.87
5753;BME280;2901;42.140;24.760;2023-07-29T12:33:32;98939.63;;;36.19;21.55
5753;BME280;2901;42.140;24.760;2023-07-29T12:35:58;98940.06;;;36.08;21.27
5753;BME280;2901;42.140;24.760;2023-07-29T12:38:25;98927.59;;;35.92;21.71
5753;BME280;2901;42.140;24.760;2023-07-29T12:40:51;98924.91;;;36.07;21.38
5753;BME280;2901;42.140;24.760;2023-07-29T12:43:16;98930.63;;;36.04;21.00
5753;BME280;2901;42.140;24.760;2023-07-29T12:45:42;98930.84;;;36.02;20.60
5753;BME280;2901;42.140;24.760;2023-07-29T12:48:09;98928.44;;;35.92;20.68
5753;BME280;2901;42.140;24.760;2023-07-29T12:50:35;98915.34;;;35.67;20.39
5753;BME280;2901;42.140;24.760;2023-07-29T12:53:00;98916.31;;;35.59;21.01
5753;BME280;2901;42.140;24.760;2023-07-29T12:55:25;98918.09;;;35.81;21.24
5753;BME280;2901;42.140;24.760;2023-07-29T12:57:51;98922.22;;;36.07;21.02
5753;BME280;2901;42.140;24.760;2023-07-29T13:00:17;98924.72;;;36.08;20.38
5753;BME280;2901;42.140;24.760;2023-07-29T13:02:42;98927.00;;;35.97;20.98
5753;BME280;2901;42.140;24.760;2023-07-29T13:05:11;98923.81;;;35.64;20.33
5753;BME280;2901;42.140;24.760;2023-07-29T13:07:40;98926.59;;;35.70;21.08
5753;BME280;2901;42.140;24.760;2023-07-29T13:10:06;98921.88;;;35.87;20.53
5753;BME280;2901;42.140;24.760;2023-07-29T13:12:32;98934.19;;;36.04;19.71
5753;BME280;2901;42.140;24.760;2023-07-29T13:14:57;98931.78;;;36.24;19.95
5753;BME280;2901;42.140;24.760;2023-07-29T13:17:23;98934.44;;;36.53;19.05
5753;BME280;2901;42.140;24.760;2023-07-29T13:19:48;98921.88;;;36.96;19.48
5753;BME280;2901;42.140;24.760;2023-07-29T13:22:14;98925.66;;;37.16;19.33
5753;BME280;2901;42.140;24.760;2023-07-29T13:24:39;98923.50;;;37.33;19.58
5753;BME280;2901;42.140;24.760;2023-07-29T13:27:05;98920.44;;;37.57;19.29